Time;durP1;ratioP1;P1;durP2;ratioP2;P2;SDS_P1;SDS_P2;PMS_P1;PMS_P2;Temp;Humidity;BMP_temperature;BMP_pressure;BME280_temperature;BME280_humidity;BME280_pressure;Samples;Min_cycle;Max_cycle;Signal;HPM_P1;HPM_P2
2023/10/27 00:01:27;;;;;;;26.73;18.20;;;11.80;99.90;;;;;;5042550;28;20747;-45
2023/10/27 00:03:54;;;;;;;26.80;18.70;;;11.70;99.90;;;;;;5042144;28;20772;-44
2023/10/27 00:06:19;;;;;;;27.20;20.30;;;11.80;99.90;;;;;;5042183;28;20013;-44
2023/10/27 00:08:45;;;;;;;32.17;20.33;;;11.80;99.90;;;;;;5042030;28;20492;-45
2023/10/27 00:11:10;;;;;;;28.23;19.77;;;11.80;99.90;;;;;;5040655;28;20136;-45
2023/10/27 00:13:36;;;;;;;30.90;20.08;;;11.80;99.90;;;;;;5041289;28;20039;-45
2023/10/27 00:16:08;;;;;;;27.90;19.02;;;11.80;99.90;;;;;;5041046;28;20031;-44
2023/10/27 00:18:33;;;;;;;29.98;19.35;;;11.80;99.90;;;;;;5040273;28;20029;-44
2023/10/27 00:20:59;;;;;;;29.75;19.83;;;11.80;99.90;;;;;;5041429;28;20044;-45
2023/10/27 00:23:25;;;;;;;29.90;19.42;;;11.80;99.90;;;;;;5041930;28;20612;-44
2023/10/27 00:25:51;;;;;;;31.42;19.55;;;11.80;99.90;;;;;;5041256;28;20025;-44
2023/10/27 00:28:17;;;;;;;27.48;18.90;;;11.80;99.90;;;;;;5040276;28;20530;-44
2023/10/27 00:30:43;;;;;;;29.20;19.17;;;11.80;99.90;;;;;;5040853;28;20017;-44
2023/10/27 00:33:08;;;;;;;32.05;20.52;;;11.90;99.90;;;;;;5040400;28;20182;-44
2023/10/27 00:35:34;;;;;;;31.92;19.65;;;11.80;99.90;;;;;;5040653;28;20017;-44
2023/10/27 00:38:00;;;;;;;32.28;19.98;;;11.90;99.90;;;;;;5040740;28;20068;-44
2023/10/27 00:40:25;;;;;;;28.15;18.25;;;11.90;99.90;;;;;;5040137;28;20184;-44
2023/10/27 00:42:51;;;;;;;28.77;18.10;;;11.90;99.90;;;;;;5041136;28;20058;-44
2023/10/27 00:45:17;;;;;;;28.77;18.08;;;11.90;99.90;;;;;;5040423;28;20056;-45
2023/10/27 00:47:42;;;;;;;27.75;16.80;;;11.90;99.90;;;;;;5040382;28;20020;-44
2023/10/27 00:50:09;;;;;;;30.08;18.98;;;11.90;99.90;;;;;;5041092;28;20021;-44
2023/10/27 00:52:35;;;;;;;28.77;17.58;;;11.90;99.90;;;;;;5040760;28;20028;-44
2023/10/27 00:55:03;;;;;;;30.48;18.60;;;11.90;99.90;;;;;;5040460;28;20044;-45
2023/10/27 00:57:29;;;;;;;29.10;17.92;;;12.00;99.90;;;;;;5041323;28;20383;-44
2023/10/27 00:59:54;;;;;;;33.97;20.83;;;12.00;99.90;;;;;;5041293;28;20469;-45
2023/10/27 01:02:21;;;;;;;37.20;19.25;;;11.90;99.90;;;;;;5039593;28;20029;-45
2023/10/27 01:04:48;;;;;;;29.33;18.67;;;11.90;99.90;;;;;;5041474;28;20036;-44
2023/10/27 01:07:17;;;;;;;28.13;18.08;;;11.90;99.90;;;;;;5039507;28;20025;-44
2023/10/27 01:09:43;;;;;;;30.80;19.23;;;11.90;99.90;;;;;;5040962;28;20111;-44
2023/10/27 01:12:08;;;;;;;29.33;18.30;;;12.00;99.90;;;;;;5040321;28;20070;-45
2023/10/27 01:14:34;;;;;;;28.33;17.58;;;11.90;99.90;;;;;;5039239;28;20032;-44
2023/10/27 01:17:00;;;;;;;27.38;17.08;;;12.00;99.90;;;;;;5040386;28;20086;-44
2023/10/27 01:19:25;;;;;;;29.23;17.15;;;12.00;99.90;;;;;;5039869;28;20029;-44
2023/10/27 01:21:53;;;;;;;31.02;19.02;;;12.00;99.90;;;;;;5040010;28;20032;-44
2023/10/27 01:24:19;;;;;;;27.92;17.35;;;12.00;99.90;;;;;;5039907;28;20411;-44
2023/10/27 01:26:45;;;;;;;29.20;18.10;;;12.00;99.90;;;;;;5041148;28;20479;-47
2023/10/27 01:29:10;;;;;;;27.50;17.52;;;12.00;99.90;;;;;;5039885;28;20770;-44
2023/10/27 01:31:36;;;;;;;28.48;17.23;;;12.00;99.90;;;;;;5040419;28;20048;-44
2023/10/27 01:34:02;;;;;;;27.00;17.60;;;12.00;99.90;;;;;;5040435;28;20052;-46
2023/10/27 01:36:30;;;;;;;27.67;17.65;;;12.00;99.90;;;;;;5039564;28;20083;-43
2023/10/27 01:38:56;;;;;;;26.05;16.55;;;12.00;99.90;;;;;;5040903;28;20057;-44
2023/10/27 01:41:24;;;;;;;26.67;17.48;;;12.00;99.90;;;;;;5040759;28;20120;-44
2023/10/27 01:43:50;;;;;;;27.80;17.90;;;12.00;99.90;;;;;;5040140;28;20048;-44
2023/10/27 01:46:15;;;;;;;26.17;17.42;;;12.00;99.90;;;;;;5040260;28;20025;-44
2023/10/27 01:48:50;;;;;;;27.52;18.33;;;12.00;99.90;;;;;;5042245;28;20021;-44
2023/10/27 01:51:19;;;;;;;30.13;19.15;;;12.00;99.90;;;;;;5043582;28;20082;-44
2023/10/27 01:53:45;;;;;;;28.63;18.58;;;12.00;99.90;;;;;;5044587;28;20025;-44
2023/10/27 01:56:10;;;;;;;28.80;18.45;;;12.00;99.90;;;;;;5044038;28;20178;-44
2023/10/27 01:58:45;;;;;;;27.33;18.10;;;12.00;99.90;;;;;;5043552;28;20538;-44
2023/10/27 02:01:14;;;;;;;28.90;18.38;;;12.00;99.90;;;;;;5043949;28;20451;-44
2023/10/27 02:03:40;;;;;;;28.08;18.27;;;12.00;99.90;;;;;;5043463;28;20071;-44
2023/10/27 02:06:05;;;;;;;28.00;18.23;;;12.00;99.90;;;;;;5043494;28;20131;-44
2023/10/27 02:08:31;;;;;;;28.83;17.75;;;12.00;99.90;;;;;;5043551;28;20408;-44
2023/10/27 02:10:57;;;;;;;30.58;19.58;;;12.00;99.90;;;;;;5043297;28;20024;-44
2023/10/27 02:13:22;;;;;;;28.17;18.48;;;12.00;99.90;;;;;;5043865;28;20593;-44
2023/10/27 02:15:48;;;;;;;29.40;19.48;;;12.00;99.90;;;;;;5043274;28;20036;-44
2023/10/27 02:18:13;;;;;;;29.92;19.65;;;12.00;99.90;;;;;;5042600;28;20623;-44
2023/10/27 02:20:39;;;;;;;28.58;18.05;;;12.00;99.90;;;;;;5043424;28;20056;-44
2023/10/27 02:23:04;;;;;;;29.17;18.80;;;12.00;99.90;;;;;;5042895;28;20037;-44
2023/10/27 02:25:30;;;;;;;28.83;19.08;;;12.00;99.90;;;;;;5043293;28;20418;-44
2023/10/27 02:27:55;;;;;;;29.52;18.85;;;12.00;99.90;;;;;;5044106;28;20037;-44
2023/10/27 02:30:21;;;;;;;27.50;19.25;;;12.00;99.90;;;;;;5043246;28;20025;-45
2023/10/27 02:32:46;;;;;;;29.05;18.48;;;12.00;99.90;;;;;;5042937;28;20082;-44
2023/10/27 02:35:12;;;;;;;25.98;17.48;;;12.00;99.90;;;;;;5042548;28;20749;-44
2023/10/27 02:37:38;;;;;;;28.80;17.63;;;11.90;99.90;;;;;;5043159;28;20068;-44
2023/10/27 02:40:04;;;;;;;28.55;18.50;;;12.00;99.90;;;;;;5042485;28;20025;-44
2023/10/27 02:42:29;;;;;;;29.77;18.55;;;12.00;99.90;;;;;;5043326;28;20120;-44
2023/10/27 02:44:55;;;;;;;27.10;17.73;;;12.00;99.90;;;;;;5043646;28;20082;-44
2023/10/27 02:47:23;;;;;;;28.35;17.48;;;12.00;99.90;;;;;;5041996;28;20028;-44
2023/10/27 02:49:48;;;;;;;28.08;17.42;;;12.00;99.90;;;;;;5043522;28;20083;-44
2023/10/27 02:52:14;;;;;;;24.92;17.77;;;11.90;99.90;;;;;;5042466;28;20632;-45
2023/10/27 02:54:40;;;;;;;24.73;16.92;;;11.90;99.90;;;;;;5043078;28;20059;-44
2023/10/27 02:57:05;;;;;;;26.25;17.10;;;12.00;99.90;;;;;;5042164;28;20090;-45
2023/10/27 02:59:37;;;;;;;27.30;17.88;;;11.90;99.90;;;;;;5041982;28;20029;-45
2023/10/27 03:02:05;;;;;;;23.92;15.75;;;11.90;99.90;;;;;;5041999;28;20752;-44
2023/10/27 03:04:39;;;;;;;26.48;16.30;;;11.90;99.90;;;;;;5042789;28;20060;-45
2023/10/27 03:07:05;;;;;;;23.45;16.42;;;11.90;99.90;;;;;;5042418;28;20040;-44
2023/10/27 03:09:31;;;;;;;23.95;16.15;;;12.00;99.90;;;;;;5042537;28;20024;-44
2023/10/27 03:11:56;;;;;;;25.20;16.98;;;12.00;99.90;;;;;;5042863;28;20555;-45
2023/10/27 03:14:25;;;;;;;25.00;16.40;;;11.90;99.90;;;;;;5041789;28;20083;-45
2023/10/27 03:16:50;;;;;;;24.20;16.58;;;11.90;99.90;;;;;;5042947;28;20804;-46
2023/10/27 03:19:17;;;;;;;25.15;16.45;;;11.90;99.90;;;;;;5042115;28;20025;-43
2023/10/27 03:21:43;;;;;;;23.15;16.05;;;12.00;99.90;;;;;;5041693;28;20103;-42
2023/10/27 03:24:11;;;;;;;20.92;14.52;;;11.90;99.90;;;;;;5041694;28;20548;-44
2023/10/27 03:26:37;;;;;;;22.33;15.55;;;11.90;99.90;;;;;;5042225;28;20382;-45
2023/10/27 03:29:03;;;;;;;20.55;14.88;;;11.90;99.90;;;;;;5041513;28;20659;-44
2023/10/27 03:31:28;;;;;;;21.50;13.25;;;12.00;99.90;;;;;;5042543;28;20039;-45
2023/10/27 03:33:54;;;;;;;21.70;14.85;;;12.00;99.90;;;;;;5038708;28;20049;-45
2023/10/27 03:36:19;;;;;;;21.35;15.05;;;12.00;99.90;;;;;;5042556;28;20109;-45
2023/10/27 03:38:45;;;;;;;21.58;15.65;;;12.00;99.90;;;;;;5042743;28;20029;-44
2023/10/27 03:41:10;;;;;;;22.95;15.52;;;12.00;99.90;;;;;;5042286;28;20469;-45
2023/10/27 03:43:36;;;;;;;22.23;15.68;;;12.00;99.90;;;;;;5041909;28;20571;-45
2023/10/27 03:46:01;;;;;;;22.17;15.52;;;12.00;99.90;;;;;;5041889;28;20087;-44
2023/10/27 03:48:28;;;;;;;21.65;15.48;;;12.00;99.90;;;;;;5041808;28;20034;-44
2023/10/27 03:50:57;;;;;;;22.10;15.50;;;11.90;99.90;;;;;;5041293;28;20037;-44
2023/10/27 03:53:23;;;;;;;22.77;15.40;;;11.90;99.90;;;;;;5041136;28;20060;-43
2023/10/27 03:55:52;;;;;;;20.70;13.93;;;11.90;99.90;;;;;;5042154;28;20519;-44
2023/10/27 03:58:18;;;;;;;20.00;13.52;;;11.90;99.90;;;;;;5039724;28;20049;-44
2023/10/27 04:00:44;;;;;;;22.05;15.07;;;11.90;99.90;;;;;;5042292;28;20356;-44
2023/10/27 04:03:10;;;;;;;21.27;15.20;;;11.90;99.90;;;;;;5041160;28;20041;-43
2023/10/27 04:05:36;;;;;;;19.17;13.57;;;11.90;99.90;;;;;;5041488;28;20056;-44
2023/10/27 04:08:02;;;;;;;19.00;13.05;;;11.90;99.90;;;;;;5042106;28;20117;-43
2023/10/27 04:10:31;;;;;;;18.77;12.70;;;11.90;99.90;;;;;;5041152;28;20025;-44
2023/10/27 04:12:57;;;;;;;17.33;12.15;;;11.90;99.90;;;;;;5042189;28;20082;-43
2023/10/27 04:15:23;;;;;;;19.00;12.95;;;11.90;99.90;;;;;;5041583;28;20017;-43
2023/10/27 04:17:49;;;;;;;17.17;11.60;;;11.90;99.90;;;;;;5040309;28;20851;-44
2023/10/27 04:20:14;;;;;;;17.50;12.27;;;11.90;99.90;;;;;;5041055;28;20087;-43
2023/10/27 04:22:40;;;;;;;17.88;11.98;;;11.90;99.90;;;;;;5040984;28;20124;-44
2023/10/27 04:25:06;;;;;;;18.38;12.50;;;11.90;99.90;;;;;;5040395;28;20032;-44
2023/10/27 04:27:31;;;;;;;15.73;11.65;;;11.90;99.90;;;;;;5041921;28;20075;-44
2023/10/27 04:29:57;;;;;;;19.70;12.70;;;11.90;99.90;;;;;;5041201;28;20834;-45
2023/10/27 04:32:26;;;;;;;16.98;11.75;;;11.90;99.90;;;;;;5040211;28;20446;-45
2023/10/27 04:34:51;;;;;;;15.82;11.52;;;11.90;99.90;;;;;;5040951;28;20048;-45
2023/10/27 04:37:18;;;;;;;14.05;10.88;;;11.90;99.90;;;;;;5041207;28;20029;-45
2023/10/27 04:39:43;;;;;;;14.00;10.20;;;11.90;99.90;;;;;;5041170;28;20565;-45
2023/10/27 04:42:09;;;;;;;12.90;9.50;;;11.90;99.90;;;;;;5041557;28;20519;-45
2023/10/27 04:44:34;;;;;;;14.77;10.95;;;11.90;99.90;;;;;;5041163;28;20025;-45
2023/10/27 04:47:00;;;;;;;12.88;9.98;;;11.90;99.90;;;;;;5040354;28;20670;-44
2023/10/27 04:49:26;;;;;;;13.30;9.52;;;11.90;99.90;;;;;;5041471;28;20536;-45
2023/10/27 04:51:51;;;;;;;11.75;8.88;;;11.90;99.90;;;;;;5041872;28;20041;-45
2023/10/27 04:54:17;;;;;;;11.75;8.48;;;11.90;99.90;;;;;;5040321;28;20398;-45
2023/10/27 04:56:45;;;;;;;11.27;7.95;;;11.90;99.90;;;;;;5041948;28;20037;-45
2023/10/27 04:59:14;;;;;;;10.23;7.63;;;11.90;99.90;;;;;;5040331;28;20108;-45
2023/10/27 05:01:39;;;;;;;9.75;7.40;;;11.90;99.90;;;;;;5040710;28;20063;-44
2023/10/27 05:04:05;;;;;;;10.73;8.25;;;11.90;99.90;;;;;;5041376;28;20610;-43
2023/10/27 05:06:30;;;;;;;10.02;7.75;;;11.90;99.90;;;;;;5040144;28;20083;-43
2023/10/27 05:08:56;;;;;;;9.57;7.55;;;11.90;99.90;;;;;;5040860;28;20032;-44
2023/10/27 05:11:22;;;;;;;9.68;7.35;;;11.90;99.90;;;;;;5040760;28;20029;-44
2023/10/27 05:13:48;;;;;;;10.65;7.80;;;11.90;99.90;;;;;;5040621;28;20033;-45
2023/10/27 05:16:13;;;;;;;10.10;8.00;;;11.90;99.90;;;;;;5040155;28;20028;-45
2023/10/27 05:18:39;;;;;;;9.20;7.22;;;11.90;99.90;;;;;;5041173;28;20037;-44
2023/10/27 05:21:04;;;;;;;7.85;6.47;;;11.90;99.90;;;;;;5040077;28;20096;-45
2023/10/27 05:23:30;;;;;;;8.25;7.03;;;11.90;99.90;;;;;;5041992;28;20040;-44
2023/10/27 05:25:56;;;;;;;8.18;6.43;;;11.90;99.90;;;;;;5044891;28;20614;-45
2023/10/27 05:28:21;;;;;;;8.10;6.35;;;11.90;99.90;;;;;;5044024;28;20139;-44
2023/10/27 05:30:50;;;;;;;8.02;7.10;;;11.90;99.90;;;;;;5044951;28;20031;-44
2023/10/27 05:33:16;;;;;;;6.93;5.90;;;11.90;99.90;;;;;;5044620;28;20057;-45
2023/10/27 05:35:41;;;;;;;6.47;5.25;;;11.90;99.90;;;;;;5044849;28;20578;-44
2023/10/27 05:38:11;;;;;;;6.97;5.60;;;11.90;99.90;;;;;;5045350;28;20033;-44
2023/10/27 05:40:36;;;;;;;6.80;5.15;;;11.90;99.90;;;;;;5045936;28;20021;-44
2023/10/27 05:43:05;;;;;;;7.72;5.57;;;11.90;99.90;;;;;;5044361;28;20789;-44
2023/10/27 05:45:30;;;;;;;7.47;5.68;;;11.90;99.90;;;;;;5045063;28;20135;-45
2023/10/27 05:47:56;;;;;;;7.45;5.63;;;11.90;99.90;;;;;;5044545;28;20036;-44
2023/10/27 05:50:21;;;;;;;6.35;5.07;;;11.90;99.90;;;;;;5043724;28;20040;-45
2023/10/27 05:52:47;;;;;;;6.45;5.13;;;11.90;99.90;;;;;;5044541;28;20043;-45
2023/10/27 05:55:12;;;;;;;6.68;5.30;;;11.90;99.90;;;;;;5044119;28;20057;-44
2023/10/27 05:57:38;;;;;;;5.68;5.07;;;12.00;99.90;;;;;;5043565;28;20024;-45
2023/10/27 06:00:04;;;;;;;5.82;4.93;;;11.90;99.90;;;;;;5043793;28;20025;-45
2023/10/27 06:02:30;;;;;;;5.70;4.93;;;11.90;99.90;;;;;;5043215;28;20078;-45
2023/10/27 06:04:55;;;;;;;6.18;5.03;;;12.00;99.90;;;;;;5043343;28;20029;-44
2023/10/27 06:07:21;;;;;;;6.60;5.70;;;12.00;99.90;;;;;;5044025;28;20503;-45
2023/10/27 06:09:46;;;;;;;7.28;5.70;;;12.00;99.90;;;;;;5043810;28;20736;-45
2023/10/27 06:12:12;;;;;;;6.53;5.50;;;11.90;99.90;;;;;;5043599;28;20029;-45
2023/10/27 06:14:44;;;;;;;7.78;5.88;;;12.00;99.90;;;;;;5043792;28;20034;-45
2023/10/27 06:17:11;;;;;;;5.70;4.85;;;11.90;99.90;;;;;;5042446;28;20040;-45
2023/10/27 06:19:36;;;;;;;6.93;5.63;;;11.90;99.90;;;;;;5043523;28;20067;-45
2023/10/27 06:22:02;;;;;;;5.82;5.22;;;11.90;99.90;;;;;;5043206;28;20136;-45
2023/10/27 06:24:28;;;;;;;5.15;4.65;;;11.90;99.90;;;;;;5042687;28;20025;-45
2023/10/27 06:26:53;;;;;;;6.18;5.03;;;11.90;99.90;;;;;;5043185;28;20032;-45
2023/10/27 06:29:19;;;;;;;6.28;5.10;;;11.90;99.90;;;;;;5043475;28;20044;-45
2023/10/27 06:31:44;;;;;;;6.10;5.30;;;11.90;99.90;;;;;;5043001;28;20111;-45
2023/10/27 06:34:10;;;;;;;6.93;5.35;;;11.90;99.90;;;;;;5043053;28;20171;-44
2023/10/27 06:36:36;;;;;;;6.45;5.47;;;11.90;99.90;;;;;;5043244;28;20464;-44
2023/10/27 06:39:01;;;;;;;7.57;6.05;;;11.90;99.90;;;;;;5042337;28;20067;-45
2023/10/27 06:41:27;;;;;;;6.13;5.30;;;11.90;99.90;;;;;;5043435;28;20020;-45
2023/10/27 06:43:52;;;;;;;6.03;4.97;;;11.90;99.90;;;;;;5043127;28;20874;-44
2023/10/27 06:46:18;;;;;;;6.13;5.03;;;11.90;99.90;;;;;;5042278;28;20191;-45
2023/10/27 06:48:43;;;;;;;5.30;4.80;;;11.90;99.90;;;;;;5043241;28;20469;-45
2023/10/27 06:51:09;;;;;;;6.95;5.93;;;11.90;99.90;;;;;;5043450;28;20025;-44
2023/10/27 06:53:35;;;;;;;5.30;4.75;;;12.00;99.90;;;;;;5041963;28;20137;-44
2023/10/27 06:56:00;;;;;;;5.32;4.82;;;11.90;99.90;;;;;;5042782;28;20032;-44
2023/10/27 06:58:26;;;;;;;5.43;4.88;;;11.90;99.90;;;;;;5042292;28;20040;-44
2023/10/27 07:00:51;;;;;;;5.43;4.85;;;12.00;99.90;;;;;;5042502;28;20028;-43
2023/10/27 07:03:17;;;;;;;5.20;4.70;;;12.00;99.90;;;;;;5042849;28;20076;-44
2023/10/27 07:05:44;;;;;;;5.50;4.90;;;11.90;99.90;;;;;;5043185;28;20025;-44
2023/10/27 07:08:09;;;;;;;6.57;5.07;;;11.90;99.90;;;;;;5042178;28;20025;-46
2023/10/27 07:10:35;;;;;;;8.07;5.70;;;11.90;99.90;;;;;;5042381;28;20103;-44
2023/10/27 07:13:01;;;;;;;5.28;4.72;;;12.00;99.90;;;;;;5041991;28;20390;-44
2023/10/27 07:15:27;;;;;;;6.47;5.30;;;11.90;99.90;;;;;;5042897;28;20471;-43
2023/10/27 07:17:55;;;;;;;6.65;5.75;;;11.90;99.90;;;;;;5042572;28;20070;-45
2023/10/27 07:20:21;;;;;;;6.25;5.60;;;11.90;99.90;;;;;;5041943;28;20027;-44
2023/10/27 07:22:46;;;;;;;6.68;5.60;;;11.90;99.90;;;;;;5043010;28;20037;-44
2023/10/27 07:25:12;;;;;;;6.22;5.57;;;11.90;99.90;;;;;;5041716;28;20013;-45
2023/10/27 07:27:38;;;;;;;6.80;5.80;;;11.90;99.90;;;;;;5042580;28;20032;-45
2023/10/27 07:30:04;;;;;;;6.03;5.35;;;11.90;99.90;;;;;;5043041;28;20061;-45
2023/10/27 07:32:30;;;;;;;6.05;5.40;;;12.00;99.90;;;;;;5042964;28;20056;-45
2023/10/27 07:34:55;;;;;;;7.57;6.00;;;11.90;99.90;;;;;;5041709;28;20084;-44
2023/10/27 07:37:24;;;;;;;6.00;5.28;;;11.90;99.90;;;;;;5042564;28;20083;-44
2023/10/27 07:39:50;;;;;;;6.18;5.57;;;11.90;99.90;;;;;;5042507;28;20029;-45
2023/10/27 07:42:15;;;;;;;6.32;5.50;;;11.90;99.90;;;;;;5041391;28;20056;-44
2023/10/27 07:44:41;;;;;;;5.90;5.30;;;12.00;99.90;;;;;;5042994;28;20491;-44
2023/10/27 07:47:06;;;;;;;5.70;4.65;;;12.00;99.90;;;;;;5041313;28;20029;-45
2023/10/27 07:49:32;;;;;;;6.55;5.25;;;12.00;99.90;;;;;;5041839;28;20035;-44
2023/10/27 07:51:58;;;;;;;6.45;5.28;;;12.10;99.90;;;;;;5042386;28;20120;-44
2023/10/27 07:54:23;;;;;;;7.05;6.07;;;12.10;99.90;;;;;;5042005;28;20060;-45
2023/10/27 07:56:52;;;;;;;8.85;7.28;;;12.10;99.90;;;;;;5040956;28;20024;-45
2023/10/27 07:59:17;;;;;;;7.70;6.78;;;12.10;99.90;;;;;;5041623;28;20036;-44
2023/10/27 08:01:43;;;;;;;8.80;6.72;;;12.10;99.90;;;;;;5041957;28;20059;-44
2023/10/27 08:04:08;;;;;;;9.80;7.00;;;12.10;99.90;;;;;;5041078;28;20835;-43
2023/10/27 08:06:34;;;;;;;8.40;6.60;;;12.20;99.90;;;;;;5041580;28;20104;-44
2023/10/27 08:09:00;;;;;;;8.40;6.70;;;12.20;99.90;;;;;;5041434;28;20371;-44
2023/10/27 08:11:28;;;;;;;8.80;6.90;;;12.20;99.90;;;;;;5040477;28;20140;-44
2023/10/27 08:13:54;;;;;;;9.23;7.72;;;12.20;99.90;;;;;;5041552;28;20033;-45
2023/10/27 08:16:22;;;;;;;8.48;7.05;;;12.20;99.90;;;;;;5040716;28;20021;-44
2023/10/27 08:18:48;;;;;;;8.30;6.35;;;12.20;99.90;;;;;;5041379;28;20025;-44
2023/10/27 08:21:14;;;;;;;6.95;6.20;;;12.20;99.90;;;;;;5041268;28;20086;-45
2023/10/27 08:23:39;;;;;;;7.38;6.40;;;12.30;99.90;;;;;;5041446;28;20033;-45
2023/10/27 08:26:05;;;;;;;7.38;6.57;;;12.30;99.90;;;;;;5041992;28;20090;-44
2023/10/27 08:28:40;;;;;;;6.88;6.18;;;12.30;99.90;;;;;;5041435;28;20028;-44
2023/10/27 08:31:05;;;;;;;8.38;7.20;;;12.30;99.90;;;;;;5040896;28;20048;-44
2023/10/27 08:33:31;;;;;;;7.75;6.95;;;12.30;99.90;;;;;;5041044;28;20140;-44
2023/10/27 08:36:03;;;;;;;7.10;6.30;;;12.30;99.90;;;;;;5041761;28;20095;-44
2023/10/27 08:38:29;;;;;;;6.97;6.28;;;12.30;99.90;;;;;;5040097;28;20558;-44
2023/10/27 08:40:56;;;;;;;7.82;6.43;;;12.40;99.90;;;;;;5041175;28;20544;-44
2023/10/27 08:43:22;;;;;;;7.22;6.28;;;12.40;99.90;;;;;;5040698;28;20789;-44
2023/10/27 08:45:49;;;;;;;7.63;6.68;;;12.40;99.90;;;;;;5040215;28;20488;-44
2023/10/27 08:48:15;;;;;;;7.85;6.35;;;12.40;99.90;;;;;;5040794;28;20101;-44
2023/10/27 08:50:40;;;;;;;6.97;5.82;;;12.40;99.90;;;;;;5041282;28;20754;-45
2023/10/27 08:53:12;;;;;;;7.20;6.03;;;12.40;99.90;;;;;;5040040;28;20029;-45
2023/10/27 08:55:38;;;;;;;8.55;5.68;;;12.40;99.90;;;;;;5041691;28;20364;-45
2023/10/27 08:58:04;;;;;;;6.60;5.68;;;12.40;99.90;;;;;;5041273;28;20024;-46
2023/10/27 09:00:30;;;;;;;8.15;6.65;;;12.40;99.90;;;;;;5040131;28;20498;-45
2023/10/27 09:03:18;;;;;;;7.32;6.53;;;12.40;99.90;;;;;;5040426;28;20115;-45
2023/10/27 09:05:44;;;;;;;6.47;5.85;;;12.40;99.90;;;;;;5032244;28;20029;-45
2023/10/27 09:08:10;;;;;;;6.43;5.72;;;12.40;99.90;;;;;;5040273;28;20208;-45
2023/10/27 09:10:39;;;;;;;6.93;6.22;;;12.40;99.90;;;;;;5040744;28;20033;-44
2023/10/27 09:13:05;;;;;;;7.00;6.25;;;12.40;99.90;;;;;;5039942;28;20036;-45
2023/10/27 09:15:46;;;;;;;6.43;5.78;;;12.40;99.90;;;;;;5040344;28;20028;-43
2023/10/27 09:18:13;;;;;;;6.40;5.57;;;12.40;99.90;;;;;;5040266;28;20021;-45
2023/10/27 09:20:52;;;;;;;6.22;5.63;;;12.40;99.90;;;;;;5040623;28;20117;-44
2023/10/27 09:23:20;;;;;;;7.20;5.55;;;12.40;99.90;;;;;;5039601;28;20083;-44
2023/10/27 09:25:46;;;;;;;5.88;5.30;;;12.30;99.90;;;;;;5040459;28;20044;-44
2023/10/27 09:28:12;;;;;;;6.60;5.90;;;12.40;99.90;;;;;;5039749;28;20056;-44
2023/10/27 09:30:40;;;;;;;6.70;5.28;;;12.30;99.90;;;;;;5040420;28;20041;-44
2023/10/27 09:33:18;;;;;;;5.65;5.13;;;12.30;99.90;;;;;;5040068;28;20167;-44
2023/10/27 09:35:48;;;;;;;6.78;6.05;;;12.30;99.90;;;;;;5039466;28;20546;-44
2023/10/27 09:38:14;;;;;;;7.30;6.60;;;12.30;99.90;;;;;;5040727;28;20147;-44
2023/10/27 09:40:41;;;;;;;7.10;6.38;;;12.30;99.90;;;;;;5039792;28;20025;-44
2023/10/27 09:43:08;;;;;;;6.35;5.75;;;12.30;99.90;;;;;;5040746;28;20542;-44
2023/10/27 09:45:36;;;;;;;6.55;5.85;;;12.30;99.90;;;;;;5040664;28;20098;-44
2023/10/27 09:48:03;;;;;;;5.72;5.13;;;12.30;99.90;;;;;;5040589;28;20522;-43
2023/10/27 09:50:30;;;;;;;5.85;5.25;;;12.40;99.90;;;;;;5040847;28;20075;-44
2023/10/27 09:53:02;;;;;;;5.22;4.68;;;12.40;99.90;;;;;;5039935;28;20674;-43
2023/10/27 09:55:29;;;;;;;5.30;4.80;;;12.40;99.90;;;;;;5038788;28;20423;-44
2023/10/27 09:57:55;;;;;;;5.10;4.60;;;12.50;99.90;;;;;;5040602;28;20032;-44
2023/10/27 10:00:25;;;;;;;4.97;4.47;;;12.50;99.90;;;;;;5040280;28;20677;-44
2023/10/27 10:02:51;;;;;;;4.50;4.10;;;12.50;99.90;;;;;;5039654;28;20037;-44
2023/10/27 10:05:16;;;;;;;4.55;4.15;;;12.60;99.90;;;;;;5039619;28;20029;-44
2023/10/27 10:07:54;;;;;;;4.50;4.10;;;12.60;99.90;;;;;;5039953;28;20324;-44
2023/10/27 10:10:33;;;;;;;5.75;4.75;;;12.60;99.90;;;;;;5041721;28;20083;-44
2023/10/27 10:12:59;;;;;;;5.82;5.00;;;12.70;99.90;;;;;;5043776;28;20086;-44
2023/10/27 10:15:26;;;;;;;5.28;4.13;;;12.70;99.90;;;;;;5043484;28;20032;-44
2023/10/27 10:17:55;;;;;;;4.20;3.80;;;12.70;99.90;;;;;;5042920;28;20029;-44
2023/10/27 10:20:47;;;;;;;4.05;3.65;;;12.80;99.90;;;;;;5043635;28;20470;-44
2023/10/27 10:23:16;;;;;;;3.53;3.22;;;12.80;99.90;;;;;;5033788;28;20334;-44
2023/10/27 10:25:52;;;;;;;3.90;3.60;;;12.80;99.90;;;;;;5044023;28;20063;-44
2023/10/27 10:28:20;;;;;;;4.20;3.60;;;12.80;99.90;;;;;;5032686;28;20039;-44
2023/10/27 10:31:06;;;;;;;4.32;3.92;;;12.80;99.90;;;;;;5042735;28;20029;-45
2023/10/27 10:33:32;;;;;;;3.80;3.50;;;12.90;99.90;;;;;;5033224;28;20510;-44
2023/10/27 10:36:18;;;;;;;3.60;3.30;;;12.90;99.90;;;;;;5043448;28;20928;-45
2023/10/27 10:38:55;;;;;;;3.95;3.55;;;12.90;99.90;;;;;;5033689;28;20093;-45
2023/10/27 10:41:22;;;;;;;4.05;3.65;;;13.00;99.90;;;;;;5043223;28;20025;-45
2023/10/27 10:44:13;;;;;;;4.03;3.72;;;13.00;99.90;;;;;;5043560;28;20123;-44
2023/10/27 10:46:43;;;;;;;3.63;3.33;;;13.00;99.90;;;;;;5043958;28;20021;-44
2023/10/27 10:49:09;;;;;;;3.88;3.58;;;13.00;99.90;;;;;;5043387;28;20017;-44
2023/10/27 10:51:44;;;;;;;4.63;4.22;;;13.00;99.90;;;;;;5042150;28;20491;-44
2023/10/27 10:54:12;;;;;;;5.05;4.55;;;13.10;99.90;;;;;;5033201;28;20028;-44
2023/10/27 10:56:38;;;;;;;4.43;4.03;;;13.00;99.90;;;;;;5043689;28;20246;-44
2023/10/27 10:59:04;;;;;;;4.95;4.45;;;13.10;99.90;;;;;;5041891;28;20024;-43
2023/10/27 11:01:30;;;;;;;5.05;4.55;;;13.10;99.90;;;;;;5042753;28;20515;-44
2023/10/27 11:03:59;;;;;;;5.50;4.95;;;13.10;99.90;;;;;;5042813;28;20796;-43
2023/10/27 11:06:27;;;;;;;5.15;4.65;;;13.10;99.90;;;;;;5041782;28;20535;-43
2023/10/27 11:08:53;;;;;;;5.30;4.80;;;13.20;99.90;;;;;;5042696;28;20063;-44
2023/10/27 11:11:19;;;;;;;5.43;4.93;;;13.20;99.90;;;;;;5043393;28;20150;-44
2023/10/27 11:13:45;;;;;;;5.22;4.72;;;13.20;99.90;;;;;;5042670;28;20040;-44
2023/10/27 11:16:15;;;;;;;4.85;4.45;;;13.20;99.90;;;;;;5042993;28;20029;-45
2023/10/27 11:18:44;;;;;;;5.40;4.90;;;13.20;99.90;;;;;;5042346;28;20029;-44
2023/10/27 11:21:23;;;;;;;5.07;4.63;;;13.30;99.90;;;;;;5040607;28;20063;-44
2023/10/27 11:23:49;;;;;;;5.25;4.75;;;13.20;99.90;;;;;;5042244;28;20032;-44
2023/10/27 11:26:16;;;;;;;5.25;4.75;;;13.20;99.90;;;;;;5041992;28;20037;-45
2023/10/27 11:28:43;;;;;;;5.05;4.50;;;13.30;99.90;;;;;;5042376;28;20025;-44
2023/10/27 11:31:15;;;;;;;4.65;4.25;;;13.20;99.90;;;;;;5042385;28;20021;-44
2023/10/27 11:34:03;;;;;;;4.90;4.50;;;13.30;99.90;;;;;;5042396;28;20048;-44
2023/10/27 11:36:35;;;;;;;4.38;3.97;;;13.30;99.90;;;;;;5042436;28;20032;-44
2023/10/27 11:39:21;;;;;;;4.60;4.18;;;13.30;99.90;;;;;;5041869;28;20033;-44
2023/10/27 11:41:59;;;;;;;4.70;4.20;;;13.30;99.90;;;;;;5042301;28;20036;-44
2023/10/27 11:44:25;;;;;;;4.32;3.92;;;13.20;99.90;;;;;;5041672;28;20369;-44
2023/10/27 11:46:56;;;;;;;3.65;3.35;;;13.30;99.90;;;;;;5042761;28;20029;-44
2023/10/27 11:49:27;;;;;;;4.00;3.70;;;13.30;99.90;;;;;;5042356;28;20059;-45
2023/10/27 11:51:56;;;;;;;3.95;3.65;;;13.30;99.90;;;;;;5042563;28;20025;-44
2023/10/27 11:54:26;;;;;;;3.95;3.65;;;13.30;99.90;;;;;;5041080;28;20365;-44
2023/10/27 11:56:53;;;;;;;3.70;3.40;;;13.30;99.90;;;;;;5042741;28;20021;-44
2023/10/27 11:59:19;;;;;;;3.60;3.30;;;13.30;99.90;;;;;;5041451;28;20102;-44
2023/10/27 12:01:45;;;;;;;3.28;3.08;;;13.30;99.90;;;;;;5041246;28;20835;-44
2023/10/27 12:04:11;;;;;;;4.25;3.85;;;13.30;99.90;;;;;;5041816;28;20041;-44
2023/10/27 12:06:40;;;;;;;4.53;4.13;;;13.30;99.90;;;;;;5041205;28;20056;-45
2023/10/27 12:09:07;;;;;;;3.90;3.50;;;13.30;99.90;;;;;;5041004;28;20116;-44
2023/10/27 12:11:33;;;;;;;3.90;3.60;;;13.30;99.90;;;;;;5042025;28;20021;-45
2023/10/27 12:13:58;;;;;;;3.63;3.33;;;13.40;99.90;;;;;;5041422;28;20036;-44
2023/10/27 12:16:24;;;;;;;3.78;3.47;;;13.40;99.90;;;;;;5040780;28;20205;-44
2023/10/27 12:18:49;;;;;;;3.72;3.42;;;13.40;99.90;;;;;;5042042;28;20025;-44
2023/10/27 12:21:15;;;;;;;4.32;3.65;;;13.40;99.90;;;;;;5041041;28;20029;-44
2023/10/27 12:23:41;;;;;;;4.15;3.75;;;13.40;99.90;;;;;;5041754;28;20484;-43
2023/10/27 12:26:09;;;;;;;4.32;3.92;;;13.40;99.90;;;;;;5041474;28;20666;-44
2023/10/27 12:28:35;;;;;;;4.20;3.80;;;13.40;99.90;;;;;;5040613;28;20032;-43
2023/10/27 12:31:01;;;;;;;4.55;4.15;;;13.50;99.90;;;;;;5040590;28;20037;-44
2023/10/27 12:33:26;;;;;;;4.38;3.72;;;13.50;99.90;;;;;;5040669;28;20061;-44
2023/10/27 12:35:52;;;;;;;4.63;3.78;;;13.50;99.90;;;;;;5041565;28;20108;-44
2023/10/27 12:38:18;;;;;;;3.20;2.90;;;13.50;99.90;;;;;;5040630;28;20373;-44